Anniston Metropolitan Airport
KANB : now visible

Airfield :











YOU CAN JOIN US ON...

 
LOGIN :

Register | Disclaimer

   EN    FR    IT 

 









Legend :    VFR   Marginal VFR   IFR   Intensive IFR   Very Intensive IFR
Visi :
Ceiling :
>= 8 km
>= 3000ft
5 to 8 km
1000 to 3000 ft
1500m to 5 km
500 to 1000 ft
800 to 1500m
200 to 500 ft
< 800m
< 200 ft
Symbols :   Thunderstorms  Fog  Heavy snow  Heavy precipitations  Wind > 20 kt






- Airport Elevation : 612 ft
- IATA code : ANB


KANB - Anniston Metropolitan

CURRENT METAR :
  • 100253Z AUTO 00000KT 10SM CLR 26/24 A2994 RMK AO2 SLP129 T02560239 53011

EXPIRED METARs :
  • 100153Z AUTO 00000KT 10SM CLR 26/23 A2993 RMK AO2 SLP124 T02560233
  • 100053Z AUTO 00000KT 10SM CLR 28/23 A2991 RMK AO2 SLP120 T02780233

TAF KANB
Valid from the 10 at 00:00 until the 11 at 00:00 UTC


092340Z 1000/1024 25005KT P6SM VCSH SCT040
FM100200 00000KT P6SM SCT060
FM101100 00000KT 5SM BR BKN004
FM101300 28006KT P6SM BKN022
FM101700 28008KT P6SM SCT050
PROB30 1018/1024 4SM TSRA BKN035CB BKN070
KZTL FIR / North America



MET'MAP, your aeronautical weather chart ! - Copyright ORBIFLY December 2007 - Disclaimer

ORBIFLY MET'MAP TEAM :

Programming & Development : Alexandra Zaïnal
Concept & original design : Baudouin d'Aumeries
Assistance for programming : Marc-Olivier Méhu
Technical & hardware support : Manuel Goepfert

Contact : metmap@orbifly.com




SOURCES & CREDITS :

   NOAA       Earth
Advisory